createdAt,value
2022-10-31T00:02:12.637Z,95851.62
2022-10-31T00:04:41.743Z,95849.72
2022-10-31T00:07:10.781Z,95848.08
2022-10-31T00:09:39.742Z,95848.00
2022-10-31T00:12:08.690Z,95848.52
2022-10-31T00:14:39.149Z,95846.55
2022-10-31T00:17:08.176Z,95841.76
2022-10-31T00:19:37.260Z,95839.58
2022-10-31T00:22:06.243Z,95856.53
2022-10-31T00:24:35.213Z,95850.51
2022-10-31T00:27:04.236Z,95843.79
2022-10-31T00:29:33.236Z,95839.03
2022-10-31T00:32:02.313Z,95842.23
2022-10-31T00:34:32.830Z,95841.51
2022-10-31T00:37:01.829Z,95834.31
2022-10-31T00:39:30.736Z,95838.03
2022-10-31T00:42:01.241Z,95841.06
2022-10-31T00:44:31.873Z,95839.45
2022-10-31T00:47:00.805Z,95835.56
2022-10-31T00:49:29.815Z,95839.45
2022-10-31T00:52:00.112Z,95838.14
2022-10-31T00:54:29.250Z,95832.28
2022-10-31T00:56:58.259Z,95839.97
2022-10-31T00:59:27.324Z,95844.28
2022-10-31T01:01:56.395Z,95841.67
2022-10-31T01:04:25.575Z,95840.77
2022-10-31T01:06:54.567Z,95842.45
2022-10-31T01:09:25.140Z,95842.30
2022-10-31T01:11:58.633Z,95842.10
2022-10-31T01:14:27.680Z,95847.77
2022-10-31T01:16:59.505Z,95851.16
2022-10-31T01:19:28.541Z,95848.20
2022-10-31T01:21:58.144Z,95850.88
2022-10-31T01:24:27.159Z,95856.63
2022-10-31T01:26:56.149Z,95846.75
2022-10-31T01:29:25.161Z,95856.28
2022-10-31T01:31:54.113Z,95854.99
2022-10-31T01:34:23.196Z,95852.84
2022-10-31T01:36:52.617Z,95870.64
2022-10-31T01:39:22.203Z,95863.75
2022-10-31T01:41:53.708Z,95864.64
2022-10-31T01:44:26.265Z,95858.19
2022-10-31T01:47:05.302Z,95862.77
2022-10-31T01:49:45.752Z,95866.98
2022-10-31T01:52:30.891Z,95866.56
2022-10-31T01:55:06.354Z,95865.59
2022-10-31T01:57:37.784Z,95867.55
2022-10-31T02:00:10.074Z,95867.92
2022-10-31T02:02:39.264Z,95866.78
2022-10-31T02:05:14.491Z,95860.92
2022-10-31T02:07:49.186Z,95857.53
2022-10-31T02:10:18.866Z,95854.55
2022-10-31T02:12:48.162Z,95847.72
2022-10-31T02:15:17.123Z,95852.92
2022-10-31T02:17:46.682Z,95852.50
2022-10-31T02:20:22.291Z,95854.37
2022-10-31T02:23:22.265Z,95855.43
2022-10-31T02:26:08.823Z,95860.16
2022-10-31T02:29:08.275Z,95869.39
2022-10-31T02:31:40.282Z,95871.61
2022-10-31T02:34:32.206Z,95871.59
2022-10-31T02:37:22.217Z,95871.53
2022-10-31T02:39:54.201Z,95873.24
2022-10-31T02:42:45.022Z,95874.58
2022-10-31T02:45:43.090Z,95886.22
2022-10-31T02:48:20.896Z,95884.25
2022-10-31T02:50:59.270Z,95883.02
2022-10-31T02:53:30.886Z,95883.58
2022-10-31T02:56:05.719Z,95889.70
2022-10-31T02:58:37.655Z,95884.69
2022-10-31T03:01:21.172Z,95883.48
2022-10-31T03:03:53.135Z,95887.56
2022-10-31T03:06:43.034Z,95895.05
2022-10-31T03:09:21.945Z,95892.28
2022-10-31T03:11:54.006Z,95891.88
2022-10-31T03:14:25.810Z,95886.27
2022-10-31T03:16:59.479Z,95891.27
2022-10-31T03:20:22.567Z,95892.71
2022-10-31T03:22:56.194Z,95898.55
2022-10-31T03:25:30.418Z,95894.19
2022-10-31T03:28:01.922Z,95896.73
2022-10-31T03:30:37.132Z,95889.75
2022-10-31T03:33:10.193Z,95889.98
2022-10-31T03:35:42.818Z,95899.54
2022-10-31T03:38:23.516Z,95899.06
2022-10-31T03:40:51.957Z,95902.02
2022-10-31T03:43:24.181Z,95908.08
2022-10-31T03:45:53.884Z,95909.29
2022-10-31T03:48:31.785Z,95908.31
2022-10-31T03:51:24.261Z,95917.94
2022-10-31T03:53:59.174Z,95915.72
2022-10-31T03:56:33.606Z,95924.00
2022-10-31T03:59:23.185Z,95920.00
2022-10-31T04:01:57.010Z,95919.38
2022-10-31T04:04:34.177Z,95921.39
2022-10-31T04:07:08.034Z,95922.66
2022-10-31T04:09:42.438Z,95927.28
2022-10-31T04:12:17.957Z,95925.45
2022-10-31T04:14:52.606Z,95932.27
2022-10-31T04:17:25.647Z,95927.98
2022-10-31T04:19:55.057Z,95933.98
2022-10-31T04:22:23.933Z,95931.84
2022-10-31T04:24:54.528Z,95931.72
2022-10-31T04:27:23.692Z,95932.48
2022-10-31T04:29:54.225Z,95932.13
2022-10-31T04:32:40.291Z,95931.92
2022-10-31T04:35:11.325Z,95926.70
2022-10-31T04:37:44.935Z,95930.51
2022-10-31T04:40:14.035Z,95933.91
2022-10-31T04:43:07.997Z,95933.02
2022-10-31T04:45:43.376Z,95939.63
2022-10-31T04:48:18.534Z,95938.99
2022-10-31T04:50:47.848Z,95938.53
2022-10-31T04:53:22.423Z,95945.41
2022-10-31T04:55:53.944Z,95944.56
2022-10-31T04:58:26.431Z,95950.83
2022-10-31T05:00:57.892Z,95951.23
2022-10-31T05:03:27.242Z,95952.36
2022-10-31T05:06:05.366Z,95956.87
2022-10-31T05:08:34.318Z,95957.02
2022-10-31T05:11:09.551Z,95958.56
2022-10-31T05:13:38.476Z,95956.44
2022-10-31T05:16:09.734Z,95961.91
2022-10-31T05:18:39.076Z,95966.31
2022-10-31T05:21:11.654Z,95962.20
2022-10-31T05:23:45.938Z,95971.53
2022-10-31T05:26:29.048Z,95973.01
2022-10-31T05:29:03.437Z,95971.89
2022-10-31T05:31:35.165Z,95978.99
2022-10-31T05:34:04.303Z,95977.45
2022-10-31T05:36:35.904Z,95979.13
2022-10-31T05:39:05.761Z,95985.86
2022-10-31T05:41:37.548Z,95986.92
2022-10-31T05:44:18.430Z,95988.94
2022-10-31T05:46:50.547Z,95985.80
2022-10-31T05:49:19.519Z,95985.86
2022-10-31T05:51:48.347Z,95987.55
2022-10-31T05:54:19.773Z,95987.19
2022-10-31T05:56:48.536Z,95993.59
2022-10-31T05:59:17.266Z,95992.26
2022-10-31T06:01:48.974Z,95992.05
2022-10-31T06:04:20.507Z,96000.08
2022-10-31T06:06:49.232Z,96003.24
2022-10-31T06:09:22.193Z,96004.92
2022-10-31T06:11:52.128Z,96009.14
2022-10-31T06:14:20.889Z,96002.89
2022-10-31T06:16:49.523Z,96008.64
2022-10-31T06:19:20.109Z,96014.97
2022-10-31T06:21:48.792Z,96018.88
2022-10-31T06:24:18.953Z,96021.27
2022-10-31T06:26:47.464Z,96028.28
2022-10-31T06:29:16.082Z,96029.98
2022-10-31T06:31:44.658Z,96036.63
2022-10-31T06:34:13.263Z,96045.41
2022-10-31T06:36:41.804Z,96037.90
2022-10-31T06:39:13.461Z,96043.61
2022-10-31T06:41:42.619Z,96048.47
2022-10-31T06:44:11.295Z,96046.94
2022-10-31T06:46:39.975Z,96047.52
2022-10-31T06:49:10.210Z,96045.52
2022-10-31T06:51:43.479Z,96046.31
2022-10-31T06:57:55.557Z,96038.47
2022-10-31T07:00:25.999Z,96040.28
2022-10-31T07:03:11.090Z,96049.34
2022-10-31T07:12:21.624Z,96046.47
2022-10-31T07:14:52.685Z,96051.13
2022-10-31T07:17:28.747Z,96045.19
2022-10-31T07:20:21.353Z,96043.98
2022-10-31T07:26:18.015Z,96036.83
2022-10-31T07:28:50.215Z,96024.13
2022-10-31T07:31:19.016Z,96022.59
2022-10-31T07:33:49.280Z,96022.31
2022-10-31T07:36:17.994Z,96027.44
2022-10-31T07:38:49.074Z,96023.03
2022-10-31T07:41:22.206Z,96033.11
2022-10-31T07:43:55.362Z,96026.92
2022-10-31T07:46:24.848Z,96028.59
2022-10-31T07:48:58.295Z,96028.00
2022-10-31T07:51:31.433Z,96020.74
2022-10-31T07:54:04.556Z,96024.81
2022-10-31T07:56:42.355Z,96024.66
2022-10-31T07:59:17.772Z,96025.39
2022-10-31T08:01:46.870Z,96026.51
2022-10-31T08:10:42.626Z,96026.94
2022-10-31T08:16:59.779Z,96026.37
2022-10-31T08:26:31.092Z,96023.50
2022-10-31T08:29:00.451Z,96021.99
2022-10-31T08:31:48.327Z,96025.44
2022-10-31T08:34:22.075Z,96020.81
2022-10-31T08:36:56.687Z,95973.08
2022-10-31T08:39:33.593Z,96019.44
2022-10-31T08:44:58.344Z,96018.91
2022-10-31T08:47:30.930Z,96014.47
2022-10-31T08:49:59.632Z,96014.67
2022-10-31T08:52:58.976Z,96014.45
2022-10-31T08:58:09.424Z,96014.97
2022-10-31T09:00:46.136Z,96012.93
2022-10-31T09:06:10.646Z,96008.73
2022-10-31T09:08:39.591Z,96016.08
2022-10-31T09:11:08.459Z,96013.14
2022-10-31T09:13:42.862Z,96016.42
2022-10-31T09:22:23.578Z,96006.56
2022-10-31T09:25:50.774Z,95997.91
2022-10-31T09:28:23.216Z,95997.57
2022-10-31T09:30:56.781Z,96001.91
2022-10-31T09:33:25.848Z,96005.33
2022-10-31T09:36:01.486Z,96002.84
2022-10-31T09:38:32.271Z,96004.38
2022-10-31T09:41:29.395Z,96003.36
2022-10-31T09:44:13.404Z,96002.59
2022-10-31T09:47:05.735Z,95999.58
2022-10-31T09:53:07.813Z,95995.65
2022-10-31T09:55:48.232Z,95990.91
2022-10-31T09:58:19.996Z,95992.64
2022-10-31T10:00:50.408Z,95988.62
2022-10-31T10:03:41.512Z,95985.42
2022-10-31T10:06:18.765Z,95978.55
2022-10-31T10:08:50.995Z,95976.67
2022-10-31T10:11:56.336Z,95970.39
2022-10-31T10:14:43.498Z,95967.13
2022-10-31T10:17:28.136Z,95961.48
2022-10-31T10:20:15.042Z,95959.88
2022-10-31T10:23:00.893Z,95956.48
2022-10-31T10:25:41.739Z,95959.45
2022-10-31T10:28:32.757Z,95879.68
2022-10-31T10:31:09.984Z,95947.09
2022-10-31T10:33:47.515Z,95942.66
2022-10-31T10:36:35.551Z,95936.72
2022-10-31T10:39:07.238Z,95934.82
2022-10-31T10:41:35.894Z,95931.55
2022-10-31T10:44:07.577Z,95925.28
2022-10-31T10:47:05.839Z,95918.78
2022-10-31T10:49:40.258Z,95922.33
2022-10-31T10:52:45.902Z,95915.81
2022-10-31T10:55:37.838Z,95908.34
2022-10-31T10:58:11.488Z,95916.95
2022-10-31T11:00:48.581Z,95916.81
2022-10-31T11:03:18.875Z,95912.80
2022-10-31T11:06:02.791Z,95913.56
2022-10-31T11:08:38.322Z,95907.97
2022-10-31T11:11:23.455Z,95907.69
2022-10-31T11:13:55.021Z,95903.84
2022-10-31T11:16:36.758Z,95902.77
2022-10-31T11:22:31.195Z,95893.73
2022-10-31T11:25:03.753Z,95889.28
2022-10-31T11:27:37.682Z,95889.72
2022-10-31T11:30:08.700Z,95885.16
2022-10-31T11:32:39.090Z,95882.52
2022-10-31T11:35:10.978Z,95881.95
2022-10-31T11:37:51.432Z,95881.62
2022-10-31T11:40:26.230Z,95875.46
2022-10-31T11:42:59.640Z,95869.22
2022-10-31T11:49:22.379Z,95877.32
2022-10-31T11:55:44.670Z,95858.95
2022-10-31T11:58:28.038Z,95860.91
2022-10-31T12:00:59.191Z,95854.03
2022-10-31T12:03:39.911Z,95860.19
2022-10-31T12:06:39.137Z,95850.20
2022-10-31T12:09:23.334Z,95850.53
2022-10-31T12:12:09.078Z,95845.63
2022-10-31T12:15:07.184Z,95851.66
2022-10-31T12:17:45.015Z,95845.13
2022-10-31T12:20:36.109Z,95853.77
2022-10-31T12:23:20.148Z,95847.14
2022-10-31T12:26:11.556Z,95843.75
2022-10-31T12:29:15.178Z,95844.17
2022-10-31T12:31:52.520Z,95854.09
2022-10-31T12:34:24.265Z,95846.47
2022-10-31T12:37:07.403Z,95847.50
2022-10-31T12:39:48.526Z,95849.02
2022-10-31T12:42:24.095Z,95846.80
2022-10-31T12:45:18.449Z,95841.30
2022-10-31T12:48:09.060Z,95843.58
2022-10-31T12:50:49.597Z,95845.44
2022-10-31T12:53:21.237Z,95836.05
2022-10-31T12:55:55.785Z,95845.72
2022-10-31T12:58:32.197Z,95843.94
2022-10-31T13:01:29.188Z,95843.77
2022-10-31T13:04:06.645Z,95837.31
2022-10-31T13:06:43.543Z,95842.57
2022-10-31T13:09:21.117Z,95846.55
2022-10-31T13:12:07.760Z,95848.50
2022-10-31T13:14:55.846Z,95844.36
2022-10-31T13:17:27.519Z,95844.44
2022-10-31T13:20:11.597Z,95842.30
2022-10-31T13:22:46.280Z,95841.56
2022-10-31T13:25:15.293Z,95840.70
2022-10-31T13:27:46.987Z,95843.25
2022-10-31T13:30:19.186Z,95838.52
2022-10-31T13:32:53.305Z,95833.41
2022-10-31T13:35:35.330Z,95839.00
2022-10-31T13:38:06.945Z,95841.55
2022-10-31T13:40:44.465Z,95840.20
2022-10-31T13:43:19.511Z,95813.23
2022-10-31T13:45:55.406Z,95837.05
2022-10-31T13:48:43.560Z,95837.22
2022-10-31T13:51:16.359Z,95835.96
2022-10-31T13:53:59.902Z,95836.20
2022-10-31T13:56:34.635Z,95839.51
2022-10-31T13:59:19.006Z,95837.66
2022-10-31T14:02:02.623Z,95838.32
2022-10-31T14:07:25.218Z,95837.42
2022-10-31T14:09:59.424Z,95840.95
2022-10-31T14:12:46.058Z,95837.56
2022-10-31T14:15:29.777Z,95838.80
2022-10-31T14:18:04.563Z,95775.34
2022-10-31T14:20:47.068Z,95843.30
2022-10-31T14:23:43.405Z,95844.81
2022-10-31T14:26:33.418Z,95845.39
2022-10-31T14:29:04.885Z,95849.58
2022-10-31T14:31:46.028Z,95851.19
2022-10-31T14:34:31.676Z,95854.91
2022-10-31T14:37:30.588Z,95854.13
2022-10-31T14:40:17.393Z,95853.07
2022-10-31T14:43:01.417Z,95854.91
2022-10-31T14:45:45.137Z,95853.22
2022-10-31T14:48:40.726Z,95845.13
2022-10-31T14:51:18.217Z,95834.35
2022-10-31T14:53:52.729Z,95852.08
2022-10-31T14:56:27.207Z,95855.73
2022-10-31T14:59:01.234Z,95858.26
2022-10-31T15:01:38.861Z,95828.91
2022-10-31T15:04:23.240Z,95854.02
2022-10-31T15:06:52.741Z,95855.41
2022-10-31T15:09:33.824Z,95856.31
2022-10-31T15:12:07.195Z,95857.85
2022-10-31T15:14:35.918Z,95857.13
2022-10-31T15:17:07.616Z,95857.66
2022-10-31T15:19:37.671Z,95863.67
2022-10-31T15:22:06.622Z,95871.27
2022-10-31T15:24:38.393Z,95874.70
2022-10-31T15:27:09.021Z,95875.22
2022-10-31T15:29:40.112Z,95876.09
2022-10-31T15:32:31.178Z,95878.70
2022-10-31T15:34:59.837Z,95877.83
2022-10-31T15:37:29.802Z,95881.41
2022-10-31T15:39:59.820Z,95881.89
2022-10-31T15:42:34.615Z,95885.26
2022-10-31T15:45:18.173Z,95888.17
2022-10-31T15:48:08.160Z,95883.41
2022-10-31T15:50:48.056Z,95885.20
2022-10-31T15:53:28.872Z,95879.09
2022-10-31T15:56:00.214Z,95891.06
2022-10-31T15:58:34.060Z,95887.67
2022-10-31T16:01:08.323Z,95887.27
2022-10-31T16:03:38.600Z,95889.25
2022-10-31T16:06:09.218Z,95891.56
2022-10-31T16:08:39.063Z,95904.66
2022-10-31T16:11:16.836Z,95903.90
2022-10-31T16:13:57.237Z,95898.95
2022-10-31T16:16:35.322Z,95901.83
2022-10-31T16:19:01.191Z,95909.70
2022-10-31T16:21:40.214Z,95914.33
2022-10-31T16:24:23.746Z,95920.09
2022-10-31T16:26:55.294Z,95912.59
2022-10-31T16:29:34.985Z,95919.33
2022-10-31T16:32:06.568Z,95919.53
2022-10-31T16:34:35.210Z,95920.62
2022-10-31T16:37:07.530Z,95923.48
2022-10-31T16:39:36.165Z,95929.06
2022-10-31T16:42:08.974Z,95934.25
2022-10-31T16:44:38.117Z,95934.83
2022-10-31T16:47:09.688Z,95938.83
2022-10-31T16:49:38.348Z,95948.03
2022-10-31T16:52:06.991Z,95943.59
2022-10-31T16:54:35.713Z,95945.30
2022-10-31T16:57:06.763Z,95942.56
2022-10-31T16:59:36.179Z,95946.41
2022-10-31T17:02:06.481Z,95951.56
2022-10-31T17:04:37.338Z,95952.08
2022-10-31T17:07:05.947Z,95960.52
2022-10-31T17:09:36.067Z,95958.98
2022-10-31T17:12:11.533Z,95966.23
2022-10-31T17:14:40.195Z,95963.01
2022-10-31T17:17:13.111Z,95965.47
2022-10-31T17:19:55.489Z,95972.11
2022-10-31T17:22:25.673Z,95974.56
2022-10-31T17:24:54.512Z,95971.10
2022-10-31T17:27:23.209Z,95976.86
2022-10-31T17:29:53.393Z,95979.85
2022-10-31T17:32:22.077Z,95964.42
2022-10-31T17:34:50.603Z,95981.30
2022-10-31T17:37:21.941Z,95984.27
2022-10-31T17:39:50.617Z,95985.41
2022-10-31T17:42:19.240Z,95981.53
2022-10-31T17:44:48.627Z,95987.70
2022-10-31T17:47:18.784Z,95994.17
2022-10-31T17:49:47.523Z,95989.27
2022-10-31T17:52:16.407Z,95998.27
2022-10-31T17:54:45.071Z,95997.26
2022-10-31T17:57:16.033Z,95999.70
2022-10-31T17:59:44.727Z,95998.80
2022-10-31T18:02:13.665Z,96001.83
2022-10-31T18:04:42.380Z,96002.36
2022-10-31T18:07:10.985Z,96006.52
2022-10-31T18:09:41.275Z,96004.91
2022-10-31T18:12:09.807Z,96005.23
2022-10-31T18:14:38.521Z,96009.80
2022-10-31T18:17:13.147Z,96010.00
2022-10-31T18:19:41.933Z,96007.89
2022-10-31T18:22:12.006Z,95996.28
2022-10-31T18:24:42.480Z,96009.11
2022-10-31T18:27:11.520Z,96013.05
2022-10-31T18:29:40.273Z,96010.00
2022-10-31T18:32:09.835Z,95929.34
2022-10-31T18:34:38.892Z,96011.91
2022-10-31T18:37:11.869Z,96012.60
2022-10-31T18:39:43.404Z,96015.12
2022-10-31T18:42:11.983Z,96016.17
2022-10-31T18:44:40.646Z,96015.37
2022-10-31T18:47:09.245Z,96017.23
2022-10-31T18:49:37.844Z,96019.20
2022-10-31T18:52:07.924Z,96017.23
2022-10-31T18:54:38.038Z,96023.92
2022-10-31T18:57:11.113Z,96026.14
2022-10-31T18:59:42.654Z,96020.77
2022-10-31T19:02:16.552Z,96018.30
2022-10-31T19:04:47.251Z,96023.77
2022-10-31T19:07:18.956Z,96026.34
2022-10-31T19:09:49.283Z,96022.33
2022-10-31T19:12:17.944Z,96024.23
2022-10-31T19:14:48.177Z,96023.36
2022-10-31T19:17:18.860Z,96027.98
2022-10-31T19:19:50.545Z,96032.27
2022-10-31T19:22:23.407Z,96028.98
2022-10-31T19:25:07.637Z,96029.19
2022-10-31T19:27:35.097Z,96023.27
2022-10-31T19:30:05.662Z,96020.19
2022-10-31T19:32:35.883Z,96029.09
2022-10-31T19:35:11.225Z,96029.19
2022-10-31T19:37:43.344Z,96032.94
2022-10-31T19:40:13.840Z,96033.23
2022-10-31T19:42:47.099Z,96039.88
2022-10-31T19:45:17.320Z,96036.59
2022-10-31T19:47:49.094Z,96039.48
2022-10-31T19:50:17.939Z,96040.73
2022-10-31T19:52:46.778Z,96041.46
2022-10-31T19:55:27.262Z,96041.95
2022-10-31T19:58:13.156Z,96045.11
2022-10-31T20:00:53.037Z,96040.78
2022-10-31T20:03:22.731Z,96043.38
2022-10-31T20:05:52.077Z,96045.24
2022-10-31T20:08:25.450Z,96050.70
2022-10-31T20:10:58.626Z,96045.36
2022-10-31T20:13:28.912Z,96045.60
2022-10-31T20:16:09.790Z,96049.89
2022-10-31T20:18:39.162Z,96056.46
2022-10-31T20:21:18.831Z,96058.09
2022-10-31T20:23:50.561Z,96060.11
2022-10-31T20:26:24.590Z,96063.72
2022-10-31T20:28:59.169Z,96062.91
2022-10-31T20:31:30.570Z,96064.73
2022-10-31T20:33:59.333Z,96074.17
2022-10-31T20:39:35.925Z,96075.44
2022-10-31T20:42:09.299Z,96079.24
2022-10-31T20:44:37.805Z,96076.23
2022-10-31T20:47:06.773Z,96081.09
2022-10-31T20:49:37.011Z,96082.16
2022-10-31T20:52:25.504Z,96084.97
2022-10-31T20:54:48.603Z,96078.63
2022-10-31T20:57:31.604Z,96083.70
2022-10-31T20:59:50.740Z,96081.52
2022-10-31T21:02:27.221Z,96080.25
2022-10-31T21:04:59.273Z,96091.45
2022-10-31T21:10:32.501Z,96084.89
2022-10-31T21:10:32.973Z,96087.51
2022-10-31T21:13:40.209Z,96089.27
2022-10-31T21:16:19.803Z,96086.52
2022-10-31T21:19:00.956Z,96083.06
2022-10-31T21:21:27.612Z,96078.50
2022-10-31T21:24:03.084Z,96081.02
2022-10-31T21:26:36.534Z,96080.20
2022-10-31T21:29:07.353Z,96081.86
2022-10-31T21:31:41.178Z,96082.27
2022-10-31T21:34:14.682Z,96076.45
2022-10-31T21:36:43.619Z,96079.69
2022-10-31T21:39:16.289Z,96083.61
2022-10-31T21:41:48.000Z,96082.87
2022-10-31T21:44:20.461Z,96087.70
2022-10-31T21:46:49.217Z,96088.59
2022-10-31T21:49:18.550Z,96085.09
2022-10-31T21:51:47.609Z,96082.53
2022-10-31T21:54:33.185Z,96085.77
2022-10-31T21:57:04.787Z,96087.86
2022-10-31T21:59:33.481Z,96082.23
2022-10-31T22:02:04.825Z,96083.72
2022-10-31T22:04:35.033Z,96085.86
2022-10-31T22:07:03.548Z,96090.37
2022-10-31T22:09:35.051Z,96080.28
2022-10-31T22:12:05.356Z,96091.98
2022-10-31T22:14:34.135Z,96096.03
2022-10-31T22:17:04.407Z,96092.55
2022-10-31T22:19:32.913Z,96098.85
2022-10-31T22:22:01.955Z,96098.59
2022-10-31T22:24:30.547Z,96097.16
2022-10-31T22:26:59.985Z,96098.48
2022-10-31T22:29:28.936Z,96102.53
2022-10-31T22:31:59.611Z,96098.55
2022-10-31T22:34:27.887Z,96100.73
2022-10-31T22:36:57.040Z,96097.23
2022-10-31T22:39:25.725Z,96108.57
2022-10-31T22:41:54.507Z,96102.39
2022-10-31T22:44:23.025Z,96106.58
2022-10-31T22:46:51.601Z,96103.91
2022-10-31T22:49:20.188Z,96106.16
2022-10-31T22:51:51.159Z,96102.41
2022-10-31T22:54:21.990Z,96103.78
2022-10-31T22:56:50.665Z,96101.72
2022-10-31T22:59:19.252Z,96102.28
2022-10-31T23:01:49.151Z,96104.83
2022-10-31T23:04:18.231Z,96100.70
2022-10-31T23:06:47.023Z,96096.48
2022-10-31T23:09:18.922Z,96099.97
2022-10-31T23:11:47.713Z,96105.61
2022-10-31T23:14:21.231Z,96103.16
2022-10-31T23:16:57.575Z,96101.69
2022-10-31T23:19:33.937Z,96100.95
2022-10-31T23:22:04.573Z,96099.09
2022-10-31T23:24:38.743Z,96102.42
2022-10-31T23:27:19.203Z,96097.92
2022-10-31T23:29:50.562Z,96099.83
2022-10-31T23:32:36.284Z,96102.09
2022-10-31T23:35:10.349Z,96100.39
2022-10-31T23:37:40.130Z,96095.48
2022-10-31T23:40:12.730Z,96091.91
2022-10-31T23:42:41.439Z,96095.27
2022-10-31T23:45:10.216Z,96093.73
2022-10-31T23:47:43.485Z,96097.05
2022-10-31T23:50:15.371Z,96099.27
2022-10-31T23:52:44.113Z,96097.22
2022-10-31T23:55:12.787Z,96098.15
2022-10-31T23:57:41.367Z,96099.91
